<?xml version="1.0" encoding="UTF-8" standalone="no" ?>
<gpx xmlns="http://www.topografix.com/GPX/1/1" xmlns:xsi="http://www.w3.org/2001/XMLSchema-instance" xsi:schemaLocation="http://www.topografix.com/GPX/1/1 http://www.topografix.com/GPX/1/1/gpx.xsd" version="1.1" creator="VisuGPX - https://www.visugpx.com">
  <metadata>
    <name>Davrinche20101</name>
    <desc><![CDATA[la partie 1 des repérages]]></desc>
  </metadata>
  <trk>
    <name><![CDATA[--Orcines-- OR-5370355:ser-fr03-vtt-b2]]></name>
    <trkseg>
      <trkpt lat="45.79888" lon="2.99257">
        <ele>968</ele>
        <time>2015-10-17T14:42:36Z</time>
      </trkpt>
      <trkpt lat="45.79888" lon="2.99181">
        <ele>967</ele>
        <time>2015-10-17T14:44:36Z</time>
      </trkpt>
      <trkpt lat="45.79905" lon="2.99081">
        <ele>964</ele>
        <time>2015-10-17T14:46:36Z</time>
      </trkpt>
      <trkpt lat="45.7989" lon="2.99026">
        <ele>963</ele>
        <time>2015-10-17T14:48:36Z</time>
      </trkpt>
      <trkpt lat="45.7987" lon="2.98976">
        <ele>964</ele>
        <time>2015-10-17T14:50:36Z</time>
      </trkpt>
      <trkpt lat="45.79848" lon="2.98895">
        <ele>964</ele>
        <time>2015-10-17T14:52:36Z</time>
      </trkpt>
      <trkpt lat="45.79841" lon="2.98847">
        <ele>965</ele>
        <time>2015-10-17T14:54:36Z</time>
      </trkpt>
      <trkpt lat="45.7982" lon="2.98795">
        <ele>964</ele>
        <time>2015-10-17T14:56:36Z</time>
      </trkpt>
      <trkpt lat="45.79815" lon="2.98771">
        <ele>964</ele>
        <time>2015-10-17T14:58:36Z</time>
      </trkpt>
      <trkpt lat="45.79878" lon="2.98697">
        <ele>965</ele>
        <time>2015-10-17T15:00:36Z</time>
      </trkpt>
      <trkpt lat="45.79868" lon="2.98664">
        <ele>963</ele>
        <time>2015-10-17T15:02:36Z</time>
      </trkpt>
      <trkpt lat="45.79861" lon="2.98616">
        <ele>962</ele>
        <time>2015-10-17T15:04:36Z</time>
      </trkpt>
      <trkpt lat="45.79833" lon="2.98575">
        <ele>961</ele>
        <time>2015-10-17T15:06:36Z</time>
      </trkpt>
      <trkpt lat="45.79828" lon="2.9854">
        <ele>963</ele>
        <time>2015-10-17T15:08:36Z</time>
      </trkpt>
      <trkpt lat="45.79822" lon="2.98511">
        <ele>964</ele>
        <time>2015-10-17T15:10:36Z</time>
      </trkpt>
      <trkpt lat="45.79885" lon="2.98449">
        <ele>966</ele>
        <time>2015-10-17T15:12:36Z</time>
      </trkpt>
      <trkpt lat="45.79923" lon="2.9842">
        <ele>967</ele>
        <time>2015-10-17T15:14:36Z</time>
      </trkpt>
      <trkpt lat="45.79968" lon="2.98349">
        <ele>970</ele>
        <time>2015-10-17T15:16:36Z</time>
      </trkpt>
      <trkpt lat="45.80049" lon="2.9837">
        <ele>969</ele>
        <time>2015-10-17T15:18:36Z</time>
      </trkpt>
      <trkpt lat="45.80124" lon="2.98392">
        <ele>972</ele>
        <time>2015-10-17T15:20:36Z</time>
      </trkpt>
      <trkpt lat="45.80194" lon="2.98394">
        <ele>977</ele>
        <time>2015-10-17T15:22:36Z</time>
      </trkpt>
      <trkpt lat="45.80224" lon="2.98433">
        <ele>979</ele>
        <time>2015-10-17T15:24:36Z</time>
      </trkpt>
      <trkpt lat="45.80256" lon="2.98473">
        <ele>982</ele>
        <time>2015-10-17T15:26:36Z</time>
      </trkpt>
      <trkpt lat="45.80309" lon="2.98485">
        <ele>981</ele>
        <time>2015-10-17T15:28:36Z</time>
      </trkpt>
      <trkpt lat="45.80326" lon="2.98442">
        <ele>981</ele>
        <time>2015-10-17T15:30:36Z</time>
      </trkpt>
      <trkpt lat="45.80377" lon="2.98421">
        <ele>981</ele>
        <time>2015-10-17T15:32:36Z</time>
      </trkpt>
      <trkpt lat="45.80369" lon="2.98388">
        <ele>983</ele>
        <time>2015-10-17T15:34:36Z</time>
      </trkpt>
      <trkpt lat="45.80346" lon="2.98361">
        <ele>984</ele>
        <time>2015-10-17T15:36:36Z</time>
      </trkpt>
      <trkpt lat="45.80344" lon="2.98297">
        <ele>988</ele>
        <time>2015-10-17T15:38:36Z</time>
      </trkpt>
      <trkpt lat="45.80356" lon="2.98254">
        <ele>991</ele>
        <time>2015-10-17T15:40:36Z</time>
      </trkpt>
      <trkpt lat="45.80392" lon="2.98216">
        <ele>991</ele>
        <time>2015-10-17T15:42:36Z</time>
      </trkpt>
      <trkpt lat="45.80374" lon="2.98156">
        <ele>995</ele>
        <time>2015-10-17T15:44:36Z</time>
      </trkpt>
      <trkpt lat="45.80399" lon="2.98118">
        <ele>998</ele>
        <time>2015-10-17T15:46:36Z</time>
      </trkpt>
      <trkpt lat="45.80402" lon="2.98073">
        <ele>1002</ele>
        <time>2015-10-17T15:48:36Z</time>
      </trkpt>
      <trkpt lat="45.80439" lon="2.97987">
        <ele>1010</ele>
        <time>2015-10-17T15:50:36Z</time>
      </trkpt>
      <trkpt lat="45.80454" lon="2.97918">
        <ele>1014</ele>
        <time>2015-10-17T15:52:36Z</time>
      </trkpt>
      <trkpt lat="45.80459" lon="2.97777">
        <ele>1023</ele>
        <time>2015-10-17T15:54:36Z</time>
      </trkpt>
      <trkpt lat="45.80459" lon="2.97715">
        <ele>1025</ele>
        <time>2015-10-17T15:56:36Z</time>
      </trkpt>
      <trkpt lat="45.80452" lon="2.97653">
        <ele>1026</ele>
        <time>2015-10-17T15:58:36Z</time>
      </trkpt>
      <trkpt lat="45.80466" lon="2.97579">
        <ele>1024</ele>
        <time>2015-10-17T16:00:36Z</time>
      </trkpt>
      <trkpt lat="45.80456" lon="2.9752">
        <ele>1019</ele>
        <time>2015-10-17T16:02:36Z</time>
      </trkpt>
      <trkpt lat="45.80436" lon="2.97484">
        <ele>1021</ele>
        <time>2015-10-17T16:04:36Z</time>
      </trkpt>
      <trkpt lat="45.80392" lon="2.97436">
        <ele>1029</ele>
        <time>2015-10-17T16:06:36Z</time>
      </trkpt>
      <trkpt lat="45.80381" lon="2.97343">
        <ele>1034</ele>
        <time>2015-10-17T16:08:36Z</time>
      </trkpt>
      <trkpt lat="45.80366" lon="2.97241">
        <ele>1040</ele>
        <time>2015-10-17T16:10:36Z</time>
      </trkpt>
      <trkpt lat="45.80349" lon="2.97131">
        <ele>1046</ele>
        <time>2015-10-17T16:12:36Z</time>
      </trkpt>
      <trkpt lat="45.80333" lon="2.97026">
        <ele>1044</ele>
        <time>2015-10-17T16:14:36Z</time>
      </trkpt>
      <trkpt lat="45.80313" lon="2.96971">
        <ele>1046</ele>
        <time>2015-10-17T16:16:36Z</time>
      </trkpt>
      <trkpt lat="45.80286" lon="2.96857">
        <ele>1047</ele>
        <time>2015-10-17T16:18:36Z</time>
      </trkpt>
      <trkpt lat="45.80244" lon="2.9674">
        <ele>1047</ele>
        <time>2015-10-17T16:20:36Z</time>
      </trkpt>
      <trkpt lat="45.80218" lon="2.96676">
        <ele>1047</ele>
        <time>2015-10-17T16:22:36Z</time>
      </trkpt>
      <trkpt lat="45.80194" lon="2.96652">
        <ele>1047</ele>
        <time>2015-10-17T16:24:36Z</time>
      </trkpt>
      <trkpt lat="45.80159" lon="2.96626">
        <ele>1048</ele>
        <time>2015-10-17T16:26:36Z</time>
      </trkpt>
      <trkpt lat="45.80131" lon="2.96597">
        <ele>1050</ele>
        <time>2015-10-17T16:28:36Z</time>
      </trkpt>
      <trkpt lat="45.80105" lon="2.96578">
        <ele>1051</ele>
        <time>2015-10-17T16:30:36Z</time>
      </trkpt>
      <trkpt lat="45.80098" lon="2.96542">
        <ele>1049</ele>
        <time>2015-10-17T16:32:36Z</time>
      </trkpt>
      <trkpt lat="45.80065" lon="2.9653">
        <ele>1051</ele>
        <time>2015-10-17T16:34:36Z</time>
      </trkpt>
      <trkpt lat="45.8004" lon="2.96514">
        <ele>1053</ele>
        <time>2015-10-17T16:36:36Z</time>
      </trkpt>
      <trkpt lat="45.79978" lon="2.96485">
        <ele>1057</ele>
        <time>2015-10-17T16:38:36Z</time>
      </trkpt>
      <trkpt lat="45.7994" lon="2.96475">
        <ele>1061</ele>
        <time>2015-10-17T16:40:36Z</time>
      </trkpt>
      <trkpt lat="45.79872" lon="2.9644">
        <ele>1070</ele>
        <time>2015-10-17T16:42:36Z</time>
      </trkpt>
      <trkpt lat="45.79844" lon="2.96411">
        <ele>1072</ele>
        <time>2015-10-17T16:44:36Z</time>
      </trkpt>
      <trkpt lat="45.798" lon="2.9641">
        <ele>1076</ele>
        <time>2015-10-17T16:46:36Z</time>
      </trkpt>
      <trkpt lat="45.79766" lon="2.96405">
        <ele>1080</ele>
        <time>2015-10-17T16:48:36Z</time>
      </trkpt>
      <trkpt lat="45.79707" lon="2.96401">
        <ele>1083</ele>
        <time>2015-10-17T16:50:36Z</time>
      </trkpt>
      <trkpt lat="45.79665" lon="2.96417">
        <ele>1081</ele>
        <time>2015-10-17T16:52:36Z</time>
      </trkpt>
      <trkpt lat="45.79615" lon="2.96429">
        <ele>1083</ele>
        <time>2015-10-17T16:54:36Z</time>
      </trkpt>
      <trkpt lat="45.7957" lon="2.96448">
        <ele>1083</ele>
        <time>2015-10-17T16:56:36Z</time>
      </trkpt>
      <trkpt lat="45.79537" lon="2.96489">
        <ele>1079</ele>
        <time>2015-10-17T16:58:36Z</time>
      </trkpt>
      <trkpt lat="45.79504" lon="2.96506">
        <ele>1076</ele>
        <time>2015-10-17T17:00:36Z</time>
      </trkpt>
      <trkpt lat="45.79472" lon="2.96563">
        <ele>1076</ele>
        <time>2015-10-17T17:02:36Z</time>
      </trkpt>
      <trkpt lat="45.79437" lon="2.96579">
        <ele>1071</ele>
        <time>2015-10-17T17:04:36Z</time>
      </trkpt>
      <trkpt lat="45.79421" lon="2.9662">
        <ele>1071</ele>
        <time>2015-10-17T17:06:36Z</time>
      </trkpt>
      <trkpt lat="45.79404" lon="2.96672">
        <ele>1076</ele>
        <time>2015-10-17T17:08:36Z</time>
      </trkpt>
      <trkpt lat="45.79374" lon="2.96572">
        <ele>1075</ele>
        <time>2015-10-17T17:10:36Z</time>
      </trkpt>
      <trkpt lat="45.79353" lon="2.96513">
        <ele>1080</ele>
        <time>2015-10-17T17:12:36Z</time>
      </trkpt>
      <trkpt lat="45.79346" lon="2.96463">
        <ele>1085</ele>
        <time>2015-10-17T17:14:36Z</time>
      </trkpt>
      <trkpt lat="45.79314" lon="2.96403">
        <ele>1094</ele>
        <time>2015-10-17T17:16:36Z</time>
      </trkpt>
      <trkpt lat="45.79289" lon="2.96329">
        <ele>1103</ele>
        <time>2015-10-17T17:18:36Z</time>
      </trkpt>
      <trkpt lat="45.79274" lon="2.96296">
        <ele>1106</ele>
        <time>2015-10-17T17:20:36Z</time>
      </trkpt>
      <trkpt lat="45.79248" lon="2.96198">
        <ele>1111</ele>
        <time>2015-10-17T17:22:36Z</time>
      </trkpt>
      <trkpt lat="45.79236" lon="2.96079">
        <ele>1118</ele>
        <time>2015-10-17T17:24:36Z</time>
      </trkpt>
      <trkpt lat="45.79243" lon="2.95969">
        <ele>1121</ele>
        <time>2015-10-17T17:26:36Z</time>
      </trkpt>
      <trkpt lat="45.79266" lon="2.95862">
        <ele>1129</ele>
        <time>2015-10-17T17:28:36Z</time>
      </trkpt>
      <trkpt lat="45.79301" lon="2.95764">
        <ele>1129</ele>
        <time>2015-10-17T17:30:36Z</time>
      </trkpt>
      <trkpt lat="45.79356" lon="2.95697">
        <ele>1118</ele>
        <time>2015-10-17T17:32:36Z</time>
      </trkpt>
      <trkpt lat="45.79421" lon="2.95662">
        <ele>1102</ele>
        <time>2015-10-17T17:34:36Z</time>
      </trkpt>
      <trkpt lat="45.79467" lon="2.95609">
        <ele>1091</ele>
        <time>2015-10-17T17:36:36Z</time>
      </trkpt>
      <trkpt lat="45.79521" lon="2.95578">
        <ele>1075</ele>
        <time>2015-10-17T17:38:36Z</time>
      </trkpt>
      <trkpt lat="45.79567" lon="2.9554">
        <ele>1061</ele>
        <time>2015-10-17T17:40:36Z</time>
      </trkpt>
      <trkpt lat="45.79624" lon="2.95452">
        <ele>1037</ele>
        <time>2015-10-17T17:42:36Z</time>
      </trkpt>
      <trkpt lat="45.79677" lon="2.95383">
        <ele>1019</ele>
        <time>2015-10-17T17:44:36Z</time>
      </trkpt>
      <trkpt lat="45.79694" lon="2.95334">
        <ele>1011</ele>
        <time>2015-10-17T17:46:36Z</time>
      </trkpt>
      <trkpt lat="45.79672" lon="2.95289">
        <ele>1010</ele>
        <time>2015-10-17T17:48:36Z</time>
      </trkpt>
      <trkpt lat="45.79664" lon="2.952">
        <ele>1008</ele>
        <time>2015-10-17T17:50:36Z</time>
      </trkpt>
      <trkpt lat="45.79648" lon="2.9516">
        <ele>1009</ele>
        <time>2015-10-17T17:52:36Z</time>
      </trkpt>
      <trkpt lat="45.79591" lon="2.95067">
        <ele>1015</ele>
        <time>2015-10-17T17:54:36Z</time>
      </trkpt>
      <trkpt lat="45.79561" lon="2.95027">
        <ele>1020</ele>
        <time>2015-10-17T17:56:36Z</time>
      </trkpt>
      <trkpt lat="45.79539" lon="2.9496">
        <ele>1024</ele>
        <time>2015-10-17T17:58:36Z</time>
      </trkpt>
      <trkpt lat="45.79508" lon="2.949">
        <ele>1027</ele>
        <time>2015-10-17T18:00:36Z</time>
      </trkpt>
      <trkpt lat="45.79451" lon="2.94836">
        <ele>1032</ele>
        <time>2015-10-17T18:02:36Z</time>
      </trkpt>
      <trkpt lat="45.79433" lon="2.94812">
        <ele>1033</ele>
        <time>2015-10-17T18:04:36Z</time>
      </trkpt>
      <trkpt lat="45.79403" lon="2.94788">
        <ele>1034</ele>
        <time>2015-10-17T18:06:36Z</time>
      </trkpt>
      <trkpt lat="45.79308" lon="2.94657">
        <ele>1035</ele>
        <time>2015-10-17T18:08:36Z</time>
      </trkpt>
      <trkpt lat="45.79285" lon="2.94614">
        <ele>1037</ele>
        <time>2015-10-17T18:10:36Z</time>
      </trkpt>
      <trkpt lat="45.79233" lon="2.9454">
        <ele>1034</ele>
        <time>2015-10-17T18:12:36Z</time>
      </trkpt>
      <trkpt lat="45.79188" lon="2.94476">
        <ele>1036</ele>
        <time>2015-10-17T18:14:36Z</time>
      </trkpt>
      <trkpt lat="45.79138" lon="2.94428">
        <ele>1038</ele>
        <time>2015-10-17T18:16:36Z</time>
      </trkpt>
      <trkpt lat="45.79105" lon="2.94428">
        <ele>1040</ele>
        <time>2015-10-17T18:18:36Z</time>
      </trkpt>
      <trkpt lat="45.79062" lon="2.94425">
        <ele>1043</ele>
        <time>2015-10-17T18:20:36Z</time>
      </trkpt>
      <trkpt lat="45.79022" lon="2.94408">
        <ele>1046</ele>
        <time>2015-10-17T18:22:36Z</time>
      </trkpt>
      <trkpt lat="45.78919" lon="2.94401">
        <ele>1052</ele>
        <time>2015-10-17T18:24:36Z</time>
      </trkpt>
      <trkpt lat="45.78888" lon="2.94396">
        <ele>1051</ele>
        <time>2015-10-17T18:26:36Z</time>
      </trkpt>
      <trkpt lat="45.78848" lon="2.9443">
        <ele>1047</ele>
        <time>2015-10-17T18:28:36Z</time>
      </trkpt>
      <trkpt lat="45.78778" lon="2.94451">
        <ele>1043</ele>
        <time>2015-10-17T18:30:36Z</time>
      </trkpt>
      <trkpt lat="45.78725" lon="2.94444">
        <ele>1040</ele>
        <time>2015-10-17T18:32:36Z</time>
      </trkpt>
      <trkpt lat="45.7869" lon="2.94437">
        <ele>1039</ele>
        <time>2015-10-17T18:34:36Z</time>
      </trkpt>
      <trkpt lat="45.78634" lon="2.94406">
        <ele>1040</ele>
        <time>2015-10-17T18:36:36Z</time>
      </trkpt>
      <trkpt lat="45.78637" lon="2.94328">
        <ele>1041</ele>
        <time>2015-10-17T18:38:36Z</time>
      </trkpt>
      <trkpt lat="45.78623" lon="2.94226">
        <ele>1038</ele>
        <time>2015-10-17T18:40:36Z</time>
      </trkpt>
      <trkpt lat="45.78598" lon="2.9413">
        <ele>1030</ele>
        <time>2015-10-17T18:42:36Z</time>
      </trkpt>
      <trkpt lat="45.78588" lon="2.94016">
        <ele>1018</ele>
        <time>2015-10-17T18:44:36Z</time>
      </trkpt>
      <trkpt lat="45.78573" lon="2.93866">
        <ele>1000</ele>
        <time>2015-10-17T18:46:36Z</time>
      </trkpt>
      <trkpt lat="45.78533" lon="2.93749">
        <ele>988</ele>
        <time>2015-10-17T18:48:36Z</time>
      </trkpt>
      <trkpt lat="45.78535" lon="2.93701">
        <ele>983</ele>
        <time>2015-10-17T18:50:36Z</time>
      </trkpt>
      <trkpt lat="45.78524" lon="2.93634">
        <ele>977</ele>
        <time>2015-10-17T18:52:36Z</time>
      </trkpt>
      <trkpt lat="45.78507" lon="2.93472">
        <ele>964</ele>
        <time>2015-10-17T18:54:36Z</time>
      </trkpt>
      <trkpt lat="45.78502" lon="2.93379">
        <ele>956</ele>
        <time>2015-10-17T18:56:36Z</time>
      </trkpt>
      <trkpt lat="45.78487" lon="2.93308">
        <ele>950</ele>
        <time>2015-10-17T18:58:36Z</time>
      </trkpt>
      <trkpt lat="45.78465" lon="2.9326">
        <ele>945</ele>
        <time>2015-10-17T19:00:36Z</time>
      </trkpt>
      <trkpt lat="45.78443" lon="2.93217">
        <ele>941</ele>
        <time>2015-10-17T19:02:36Z</time>
      </trkpt>
      <trkpt lat="45.78417" lon="2.93098">
        <ele>928</ele>
        <time>2015-10-17T19:04:36Z</time>
      </trkpt>
      <trkpt lat="45.78403" lon="2.93022">
        <ele>925</ele>
        <time>2015-10-17T19:06:36Z</time>
      </trkpt>
      <trkpt lat="45.7839" lon="2.93015">
        <ele>925</ele>
        <time>2015-10-17T19:08:36Z</time>
      </trkpt>
      <trkpt lat="45.78336" lon="2.93086">
        <ele>932</ele>
        <time>2015-10-17T19:10:36Z</time>
      </trkpt>
      <trkpt lat="45.78293" lon="2.93187">
        <ele>941</ele>
        <time>2015-10-17T19:12:36Z</time>
      </trkpt>
      <trkpt lat="45.78263" lon="2.93284">
        <ele>950</ele>
        <time>2015-10-17T19:14:36Z</time>
      </trkpt>
      <trkpt lat="45.78247" lon="2.93315">
        <ele>953</ele>
        <time>2015-10-17T19:16:36Z</time>
      </trkpt>
      <trkpt lat="45.78207" lon="2.93403">
        <ele>962</ele>
        <time>2015-10-17T19:18:36Z</time>
      </trkpt>
      <trkpt lat="45.78165" lon="2.93456">
        <ele>964</ele>
        <time>2015-10-17T19:20:36Z</time>
      </trkpt>
      <trkpt lat="45.78127" lon="2.93451">
        <ele>960</ele>
        <time>2015-10-17T19:22:36Z</time>
      </trkpt>
      <trkpt lat="45.78082" lon="2.93411">
        <ele>956</ele>
        <time>2015-10-17T19:24:36Z</time>
      </trkpt>
      <trkpt lat="45.78051" lon="2.93427">
        <ele>955</ele>
        <time>2015-10-17T19:26:36Z</time>
      </trkpt>
      <trkpt lat="45.77977" lon="2.93455">
        <ele>953</ele>
        <time>2015-10-17T19:28:36Z</time>
      </trkpt>
      <trkpt lat="45.77935" lon="2.93475">
        <ele>953</ele>
        <time>2015-10-17T19:30:36Z</time>
      </trkpt>
      <trkpt lat="45.77899" lon="2.93482">
        <ele>953</ele>
        <time>2015-10-17T19:32:36Z</time>
      </trkpt>
      <trkpt lat="45.77859" lon="2.9351">
        <ele>954</ele>
        <time>2015-10-17T19:34:36Z</time>
      </trkpt>
      <trkpt lat="45.77822" lon="2.93536">
        <ele>954</ele>
        <time>2015-10-17T19:36:36Z</time>
      </trkpt>
      <trkpt lat="45.7777" lon="2.93572">
        <ele>955</ele>
        <time>2015-10-17T19:38:36Z</time>
      </trkpt>
      <trkpt lat="45.77726" lon="2.93587">
        <ele>955</ele>
        <time>2015-10-17T19:40:36Z</time>
      </trkpt>
      <trkpt lat="45.77669" lon="2.93598">
        <ele>956</ele>
        <time>2015-10-17T19:42:36Z</time>
      </trkpt>
      <trkpt lat="45.77608" lon="2.93622">
        <ele>959</ele>
        <time>2015-10-17T19:44:36Z</time>
      </trkpt>
      <trkpt lat="45.77576" lon="2.93624">
        <ele>959</ele>
        <time>2015-10-17T19:46:36Z</time>
      </trkpt>
      <trkpt lat="45.77521" lon="2.93626">
        <ele>958</ele>
        <time>2015-10-17T19:48:36Z</time>
      </trkpt>
      <trkpt lat="45.77481" lon="2.93636">
        <ele>957</ele>
        <time>2015-10-17T19:50:36Z</time>
      </trkpt>
      <trkpt lat="45.77431" lon="2.93676">
        <ele>955</ele>
        <time>2015-10-17T19:52:36Z</time>
      </trkpt>
      <trkpt lat="45.77465" lon="2.9375">
        <ele>956</ele>
        <time>2015-10-17T19:54:36Z</time>
      </trkpt>
      <trkpt lat="45.77521" lon="2.93786">
        <ele>960</ele>
        <time>2015-10-17T19:56:36Z</time>
      </trkpt>
      <trkpt lat="45.77563" lon="2.93855">
        <ele>962</ele>
        <time>2015-10-17T19:58:36Z</time>
      </trkpt>
      <trkpt lat="45.77625" lon="2.93895">
        <ele>966</ele>
        <time>2015-10-17T20:00:36Z</time>
      </trkpt>
      <trkpt lat="45.77689" lon="2.93972">
        <ele>974</ele>
        <time>2015-10-17T20:02:36Z</time>
      </trkpt>
      <trkpt lat="45.77732" lon="2.94046">
        <ele>983</ele>
        <time>2015-10-17T20:04:36Z</time>
      </trkpt>
      <trkpt lat="45.77769" lon="2.94085">
        <ele>990</ele>
        <time>2015-10-17T20:06:36Z</time>
      </trkpt>
      <trkpt lat="45.77807" lon="2.94156">
        <ele>999</ele>
        <time>2015-10-17T20:08:36Z</time>
      </trkpt>
      <trkpt lat="45.77848" lon="2.94178">
        <ele>1004</ele>
        <time>2015-10-17T20:10:36Z</time>
      </trkpt>
      <trkpt lat="45.77905" lon="2.94166">
        <ele>1006</ele>
        <time>2015-10-17T20:12:36Z</time>
      </trkpt>
      <trkpt lat="45.77958" lon="2.94211">
        <ele>1008</ele>
        <time>2015-10-17T20:14:36Z</time>
      </trkpt>
      <trkpt lat="45.78011" lon="2.94283">
        <ele>1015</ele>
        <time>2015-10-17T20:16:36Z</time>
      </trkpt>
      <trkpt lat="45.78021" lon="2.94347">
        <ele>1021</ele>
        <time>2015-10-17T20:18:36Z</time>
      </trkpt>
      <trkpt lat="45.78068" lon="2.94397">
        <ele>1021</ele>
        <time>2015-10-17T20:20:36Z</time>
      </trkpt>
      <trkpt lat="45.78125" lon="2.94442">
        <ele>1023</ele>
        <time>2015-10-17T20:22:36Z</time>
      </trkpt>
      <trkpt lat="45.7823" lon="2.94473">
        <ele>1031</ele>
        <time>2015-10-17T20:24:36Z</time>
      </trkpt>
      <trkpt lat="45.78312" lon="2.94492">
        <ele>1037</ele>
        <time>2015-10-17T20:26:36Z</time>
      </trkpt>
      <trkpt lat="45.78398" lon="2.94478">
        <ele>1041</ele>
        <time>2015-10-17T20:28:36Z</time>
      </trkpt>
      <trkpt lat="45.7847" lon="2.94483">
        <ele>1043</ele>
        <time>2015-10-17T20:30:36Z</time>
      </trkpt>
      <trkpt lat="45.78541" lon="2.94442">
        <ele>1045</ele>
        <time>2015-10-17T20:32:36Z</time>
      </trkpt>
      <trkpt lat="45.78618" lon="2.94426">
        <ele>1041</ele>
        <time>2015-10-17T20:34:36Z</time>
      </trkpt>
      <trkpt lat="45.78714" lon="2.94445">
        <ele>1040</ele>
        <time>2015-10-17T20:36:36Z</time>
      </trkpt>
      <trkpt lat="45.78676" lon="2.94495">
        <ele>1039</ele>
        <time>2015-10-17T20:38:36Z</time>
      </trkpt>
      <trkpt lat="45.78621" lon="2.94561">
        <ele>1044</ele>
        <time>2015-10-17T20:40:36Z</time>
      </trkpt>
      <trkpt lat="45.78604" lon="2.94633">
        <ele>1046</ele>
        <time>2015-10-17T20:42:36Z</time>
      </trkpt>
      <trkpt lat="45.78614" lon="2.94707">
        <ele>1048</ele>
        <time>2015-10-17T20:44:36Z</time>
      </trkpt>
      <trkpt lat="45.78616" lon="2.94783">
        <ele>1050</ele>
        <time>2015-10-17T20:46:36Z</time>
      </trkpt>
      <trkpt lat="45.78636" lon="2.94845">
        <ele>1053</ele>
        <time>2015-10-17T20:48:36Z</time>
      </trkpt>
      <trkpt lat="45.78651" lon="2.94945">
        <ele>1058</ele>
        <time>2015-10-17T20:50:36Z</time>
      </trkpt>
      <trkpt lat="45.78628" lon="2.95029">
        <ele>1063</ele>
        <time>2015-10-17T20:52:36Z</time>
      </trkpt>
      <trkpt lat="45.78631" lon="2.95113">
        <ele>1070</ele>
        <time>2015-10-17T20:54:36Z</time>
      </trkpt>
      <trkpt lat="45.7862" lon="2.95201">
        <ele>1074</ele>
        <time>2015-10-17T20:56:36Z</time>
      </trkpt>
      <trkpt lat="45.7861" lon="2.95299">
        <ele>1073</ele>
        <time>2015-10-17T20:58:36Z</time>
      </trkpt>
      <trkpt lat="45.78608" lon="2.95368">
        <ele>1071</ele>
        <time>2015-10-17T21:00:36Z</time>
      </trkpt>
      <trkpt lat="45.78595" lon="2.95518">
        <ele>1069</ele>
        <time>2015-10-17T21:02:36Z</time>
      </trkpt>
      <trkpt lat="45.78585" lon="2.95649">
        <ele>1067</ele>
        <time>2015-10-17T21:04:36Z</time>
      </trkpt>
      <trkpt lat="45.78578" lon="2.95728">
        <ele>1070</ele>
        <time>2015-10-17T21:06:36Z</time>
      </trkpt>
      <trkpt lat="45.78586" lon="2.9584">
        <ele>1074</ele>
        <time>2015-10-17T21:08:36Z</time>
      </trkpt>
      <trkpt lat="45.78543" lon="2.95857">
        <ele>1074</ele>
        <time>2015-10-17T21:10:36Z</time>
      </trkpt>
      <trkpt lat="45.7848" lon="2.95864">
        <ele>1073</ele>
        <time>2015-10-17T21:12:36Z</time>
      </trkpt>
      <trkpt lat="45.78437" lon="2.95862">
        <ele>1073</ele>
        <time>2015-10-17T21:14:36Z</time>
      </trkpt>
      <trkpt lat="45.78397" lon="2.9585">
        <ele>1073</ele>
        <time>2015-10-17T21:16:36Z</time>
      </trkpt>
      <trkpt lat="45.78346" lon="2.95847">
        <ele>1072</ele>
        <time>2015-10-17T21:18:36Z</time>
      </trkpt>
      <trkpt lat="45.78291" lon="2.95838">
        <ele>1072</ele>
        <time>2015-10-17T21:20:36Z</time>
      </trkpt>
      <trkpt lat="45.78212" lon="2.95811">
        <ele>1072</ele>
        <time>2015-10-17T21:22:36Z</time>
      </trkpt>
      <trkpt lat="45.78146" lon="2.95709">
        <ele>1074</ele>
        <time>2015-10-17T21:24:36Z</time>
      </trkpt>
      <trkpt lat="45.78135" lon="2.95635">
        <ele>1076</ele>
        <time>2015-10-17T21:26:36Z</time>
      </trkpt>
      <trkpt lat="45.78083" lon="2.95518">
        <ele>1079</ele>
        <time>2015-10-17T21:28:36Z</time>
      </trkpt>
      <trkpt lat="45.78056" lon="2.95449">
        <ele>1078</ele>
        <time>2015-10-17T21:30:36Z</time>
      </trkpt>
      <trkpt lat="45.78017" lon="2.95353">
        <ele>1071</ele>
        <time>2015-10-17T21:32:36Z</time>
      </trkpt>
      <trkpt lat="45.77937" lon="2.95327">
        <ele>1069</ele>
        <time>2015-10-17T21:34:36Z</time>
      </trkpt>
      <trkpt lat="45.77922" lon="2.95308">
        <ele>1068</ele>
        <time>2015-10-17T21:36:36Z</time>
      </trkpt>
      <trkpt lat="45.77899" lon="2.95308">
        <ele>1070</ele>
        <time>2015-10-17T21:38:36Z</time>
      </trkpt>
      <trkpt lat="45.77845" lon="2.9527">
        <ele>1072</ele>
        <time>2015-10-17T21:40:36Z</time>
      </trkpt>
      <trkpt lat="45.77749" lon="2.95234">
        <ele>1073</ele>
        <time>2015-10-17T21:42:36Z</time>
      </trkpt>
      <trkpt lat="45.77718" lon="2.95234">
        <ele>1073</ele>
        <time>2015-10-17T21:44:36Z</time>
      </trkpt>
      <trkpt lat="45.77669" lon="2.95255">
        <ele>1074</ele>
        <time>2015-10-17T21:46:36Z</time>
      </trkpt>
      <trkpt lat="45.77582" lon="2.95286">
        <ele>1071</ele>
        <time>2015-10-17T21:48:36Z</time>
      </trkpt>
      <trkpt lat="45.77532" lon="2.95229">
        <ele>1065</ele>
        <time>2015-10-17T21:50:36Z</time>
      </trkpt>
      <trkpt lat="45.77464" lon="2.95208">
        <ele>1067</ele>
        <time>2015-10-17T21:52:36Z</time>
      </trkpt>
      <trkpt lat="45.77406" lon="2.95189">
        <ele>1070</ele>
        <time>2015-10-17T21:54:36Z</time>
      </trkpt>
      <trkpt lat="45.77356" lon="2.95187">
        <ele>1070</ele>
        <time>2015-10-17T21:56:36Z</time>
      </trkpt>
      <trkpt lat="45.77303" lon="2.95206">
        <ele>1076</ele>
        <time>2015-10-17T21:58:36Z</time>
      </trkpt>
      <trkpt lat="45.77256" lon="2.95201">
        <ele>1076</ele>
        <time>2015-10-17T22:00:36Z</time>
      </trkpt>
      <trkpt lat="45.77209" lon="2.9523">
        <ele>1083</ele>
        <time>2015-10-17T22:02:36Z</time>
      </trkpt>
      <trkpt lat="45.7713" lon="2.95258">
        <ele>1089</ele>
        <time>2015-10-17T22:04:36Z</time>
      </trkpt>
      <trkpt lat="45.77088" lon="2.95261">
        <ele>1087</ele>
        <time>2015-10-17T22:06:36Z</time>
      </trkpt>
      <trkpt lat="45.77013" lon="2.95314">
        <ele>1094</ele>
        <time>2015-10-17T22:08:36Z</time>
      </trkpt>
      <trkpt lat="45.76968" lon="2.95326">
        <ele>1089</ele>
        <time>2015-10-17T22:10:36Z</time>
      </trkpt>
      <trkpt lat="45.76911" lon="2.95364">
        <ele>1087</ele>
        <time>2015-10-17T22:12:36Z</time>
      </trkpt>
      <trkpt lat="45.76853" lon="2.95381">
        <ele>1083</ele>
        <time>2015-10-17T22:14:36Z</time>
      </trkpt>
      <trkpt lat="45.76801" lon="2.95421">
        <ele>1088</ele>
        <time>2015-10-17T22:16:36Z</time>
      </trkpt>
      <trkpt lat="45.76755" lon="2.95405">
        <ele>1081</ele>
        <time>2015-10-17T22:18:36Z</time>
      </trkpt>
      <trkpt lat="45.76717" lon="2.95412">
        <ele>1081</ele>
        <time>2015-10-17T22:20:36Z</time>
      </trkpt>
      <trkpt lat="45.76634" lon="2.95421">
        <ele>1076</ele>
        <time>2015-10-17T22:22:36Z</time>
      </trkpt>
      <trkpt lat="45.76612" lon="2.95452">
        <ele>1081</ele>
        <time>2015-10-17T22:24:36Z</time>
      </trkpt>
      <trkpt lat="45.76566" lon="2.95478">
        <ele>1082</ele>
        <time>2015-10-17T22:26:36Z</time>
      </trkpt>
      <trkpt lat="45.76528" lon="2.95514">
        <ele>1086</ele>
        <time>2015-10-17T22:28:36Z</time>
      </trkpt>
      <trkpt lat="45.76478" lon="2.95521">
        <ele>1082</ele>
        <time>2015-10-17T22:30:36Z</time>
      </trkpt>
      <trkpt lat="45.76398" lon="2.95559">
        <ele>1080</ele>
        <time>2015-10-17T22:32:36Z</time>
      </trkpt>
      <trkpt lat="45.76375" lon="2.95602">
        <ele>1079</ele>
        <time>2015-10-17T22:34:36Z</time>
      </trkpt>
      <trkpt lat="45.76345" lon="2.95633">
        <ele>1075</ele>
        <time>2015-10-17T22:36:36Z</time>
      </trkpt>
      <trkpt lat="45.76338" lon="2.95671">
        <ele>1070</ele>
        <time>2015-10-17T22:38:36Z</time>
      </trkpt>
      <trkpt lat="45.76355" lon="2.95724">
        <ele>1070</ele>
        <time>2015-10-17T22:40:36Z</time>
      </trkpt>
      <trkpt lat="45.76377" lon="2.95768">
        <ele>1072</ele>
        <time>2015-10-17T22:42:36Z</time>
      </trkpt>
      <trkpt lat="45.76385" lon="2.9581">
        <ele>1072</ele>
        <time>2015-10-17T22:44:36Z</time>
      </trkpt>
      <trkpt lat="45.76375" lon="2.95886">
        <ele>1062</ele>
        <time>2015-10-17T22:46:36Z</time>
      </trkpt>
      <trkpt lat="45.76357" lon="2.95933">
        <ele>1052</ele>
        <time>2015-10-17T22:48:36Z</time>
      </trkpt>
      <trkpt lat="45.7635" lon="2.96035">
        <ele>1040</ele>
        <time>2015-10-17T22:50:36Z</time>
      </trkpt>
      <trkpt lat="45.76365" lon="2.96102">
        <ele>1035</ele>
        <time>2015-10-17T22:52:36Z</time>
      </trkpt>
      <trkpt lat="45.76353" lon="2.96176">
        <ele>1027</ele>
        <time>2015-10-17T22:54:36Z</time>
      </trkpt>
      <trkpt lat="45.76363" lon="2.96209">
        <ele>1026</ele>
        <time>2015-10-17T22:56:36Z</time>
      </trkpt>
      <trkpt lat="45.76355" lon="2.96259">
        <ele>1021</ele>
        <time>2015-10-17T22:58:36Z</time>
      </trkpt>
      <trkpt lat="45.76335" lon="2.96255">
        <ele>1018</ele>
        <time>2015-10-17T23:00:36Z</time>
      </trkpt>
      <trkpt lat="45.76345" lon="2.96307">
        <ele>1017</ele>
        <time>2015-10-17T23:02:36Z</time>
      </trkpt>
      <trkpt lat="45.76325" lon="2.96343">
        <ele>1012</ele>
        <time>2015-10-17T23:04:36Z</time>
      </trkpt>
      <trkpt lat="45.76329" lon="2.96376">
        <ele>1011</ele>
        <time>2015-10-17T23:06:36Z</time>
      </trkpt>
      <trkpt lat="45.76299" lon="2.96393">
        <ele>1006</ele>
        <time>2015-10-17T23:08:36Z</time>
      </trkpt>
      <trkpt lat="45.76314" lon="2.96438">
        <ele>1006</ele>
        <time>2015-10-17T23:10:36Z</time>
      </trkpt>
      <trkpt lat="45.7629" lon="2.96455">
        <ele>1001</ele>
        <time>2015-10-17T23:12:36Z</time>
      </trkpt>
      <trkpt lat="45.7631" lon="2.96488">
        <ele>1002</ele>
        <time>2015-10-17T23:14:36Z</time>
      </trkpt>
      <trkpt lat="45.76285" lon="2.96505">
        <ele>996</ele>
        <time>2015-10-17T23:16:36Z</time>
      </trkpt>
      <trkpt lat="45.76284" lon="2.96555">
        <ele>992</ele>
        <time>2015-10-17T23:18:36Z</time>
      </trkpt>
      <trkpt lat="45.76274" lon="2.96581">
        <ele>989</ele>
        <time>2015-10-17T23:20:36Z</time>
      </trkpt>
      <trkpt lat="45.7625" lon="2.96581">
        <ele>984</ele>
        <time>2015-10-17T23:22:36Z</time>
      </trkpt>
      <trkpt lat="45.76255" lon="2.9661">
        <ele>984</ele>
        <time>2015-10-17T23:24:36Z</time>
      </trkpt>
      <trkpt lat="45.76182" lon="2.96698">
        <ele>974</ele>
        <time>2015-10-17T23:26:36Z</time>
      </trkpt>
      <trkpt lat="45.76186" lon="2.96815">
        <ele>967</ele>
        <time>2015-10-17T23:28:36Z</time>
      </trkpt>
      <trkpt lat="45.76204" lon="2.96853">
        <ele>965</ele>
        <time>2015-10-17T23:30:36Z</time>
      </trkpt>
      <trkpt lat="45.76194" lon="2.96909">
        <ele>962</ele>
        <time>2015-10-17T23:32:36Z</time>
      </trkpt>
      <trkpt lat="45.76179" lon="2.96947">
        <ele>961</ele>
        <time>2015-10-17T23:34:36Z</time>
      </trkpt>
      <trkpt lat="45.76174" lon="2.96997">
        <ele>960</ele>
        <time>2015-10-17T23:36:36Z</time>
      </trkpt>
      <trkpt lat="45.76194" lon="2.97076">
        <ele>956</ele>
        <time>2015-10-17T23:38:36Z</time>
      </trkpt>
      <trkpt lat="45.76211" lon="2.97159">
        <ele>954</ele>
        <time>2015-10-17T23:40:36Z</time>
      </trkpt>
      <trkpt lat="45.76193" lon="2.97219">
        <ele>952</ele>
        <time>2015-10-17T23:42:36Z</time>
      </trkpt>
      <trkpt lat="45.76226" lon="2.97352">
        <ele>945</ele>
        <time>2015-10-17T23:44:36Z</time>
      </trkpt>
      <trkpt lat="45.76241" lon="2.97455">
        <ele>942</ele>
        <time>2015-10-17T23:46:36Z</time>
      </trkpt>
      <trkpt lat="45.76246" lon="2.97576">
        <ele>938</ele>
        <time>2015-10-17T23:48:36Z</time>
      </trkpt>
      <trkpt lat="45.76253" lon="2.97657">
        <ele>934</ele>
        <time>2015-10-17T23:50:36Z</time>
      </trkpt>
      <trkpt lat="45.76316" lon="2.97702">
        <ele>932</ele>
        <time>2015-10-17T23:52:36Z</time>
      </trkpt>
      <trkpt lat="45.76383" lon="2.97745">
        <ele>932</ele>
        <time>2015-10-17T23:54:36Z</time>
      </trkpt>
      <trkpt lat="45.76436" lon="2.97826">
        <ele>933</ele>
        <time>2015-10-17T23:56:36Z</time>
      </trkpt>
      <trkpt lat="45.76496" lon="2.9786">
        <ele>933</ele>
        <time>2015-10-17T23:58:36Z</time>
      </trkpt>
      <trkpt lat="45.76549" lon="2.97896">
        <ele>933</ele>
        <time>2015-10-18T00:00:36Z</time>
      </trkpt>
      <trkpt lat="45.76644" lon="2.97891">
        <ele>937</ele>
        <time>2015-10-18T00:02:36Z</time>
      </trkpt>
      <trkpt lat="45.76733" lon="2.97896">
        <ele>940</ele>
        <time>2015-10-18T00:04:36Z</time>
      </trkpt>
      <trkpt lat="45.76796" lon="2.97935">
        <ele>938</ele>
        <time>2015-10-18T00:06:36Z</time>
      </trkpt>
      <trkpt lat="45.76874" lon="2.97949">
        <ele>936</ele>
        <time>2015-10-18T00:08:36Z</time>
      </trkpt>
      <trkpt lat="45.76951" lon="2.97954">
        <ele>934</ele>
        <time>2015-10-18T00:10:36Z</time>
      </trkpt>
      <trkpt lat="45.77022" lon="2.97997">
        <ele>933</ele>
        <time>2015-10-18T00:12:36Z</time>
      </trkpt>
      <trkpt lat="45.77096" lon="2.98039">
        <ele>936</ele>
        <time>2015-10-18T00:14:36Z</time>
      </trkpt>
      <trkpt lat="45.7716" lon="2.98082">
        <ele>934</ele>
        <time>2015-10-18T00:16:36Z</time>
      </trkpt>
      <trkpt lat="45.77214" lon="2.98149">
        <ele>928</ele>
        <time>2015-10-18T00:18:36Z</time>
      </trkpt>
      <trkpt lat="45.77286" lon="2.98203">
        <ele>924</ele>
        <time>2015-10-18T00:20:36Z</time>
      </trkpt>
      <trkpt lat="45.77397" lon="2.98253">
        <ele>925</ele>
        <time>2015-10-18T00:22:36Z</time>
      </trkpt>
      <trkpt lat="45.77474" lon="2.98281">
        <ele>924</ele>
        <time>2015-10-18T00:24:36Z</time>
      </trkpt>
      <trkpt lat="45.77584" lon="2.98353">
        <ele>923</ele>
        <time>2015-10-18T00:26:36Z</time>
      </trkpt>
      <trkpt lat="45.77703" lon="2.98424">
        <ele>929</ele>
        <time>2015-10-18T00:28:36Z</time>
      </trkpt>
      <trkpt lat="45.77801" lon="2.98483">
        <ele>930</ele>
        <time>2015-10-18T00:30:36Z</time>
      </trkpt>
      <trkpt lat="45.77923" lon="2.98557">
        <ele>930</ele>
        <time>2015-10-18T00:32:36Z</time>
      </trkpt>
      <trkpt lat="45.78019" lon="2.98586">
        <ele>929</ele>
        <time>2015-10-18T00:34:36Z</time>
      </trkpt>
      <trkpt lat="45.78076" lon="2.98593">
        <ele>930</ele>
        <time>2015-10-18T00:36:36Z</time>
      </trkpt>
      <trkpt lat="45.78131" lon="2.98576">
        <ele>929</ele>
        <time>2015-10-18T00:38:36Z</time>
      </trkpt>
      <trkpt lat="45.78199" lon="2.98578">
        <ele>929</ele>
        <time>2015-10-18T00:40:36Z</time>
      </trkpt>
      <trkpt lat="45.78274" lon="2.98549">
        <ele>931</ele>
        <time>2015-10-18T00:42:36Z</time>
      </trkpt>
      <trkpt lat="45.78357" lon="2.98537">
        <ele>933</ele>
        <time>2015-10-18T00:44:36Z</time>
      </trkpt>
      <trkpt lat="45.7844" lon="2.98513">
        <ele>933</ele>
        <time>2015-10-18T00:46:36Z</time>
      </trkpt>
      <trkpt lat="45.78505" lon="2.98454">
        <ele>935</ele>
        <time>2015-10-18T00:48:36Z</time>
      </trkpt>
      <trkpt lat="45.78577" lon="2.9843">
        <ele>937</ele>
        <time>2015-10-18T00:50:36Z</time>
      </trkpt>
      <trkpt lat="45.78674" lon="2.98414">
        <ele>937</ele>
        <time>2015-10-18T00:52:36Z</time>
      </trkpt>
      <trkpt lat="45.7877" lon="2.98423">
        <ele>938</ele>
        <time>2015-10-18T00:54:36Z</time>
      </trkpt>
      <trkpt lat="45.78818" lon="2.98416">
        <ele>939</ele>
        <time>2015-10-18T00:56:36Z</time>
      </trkpt>
      <trkpt lat="45.78873" lon="2.98459">
        <ele>943</ele>
        <time>2015-10-18T00:58:36Z</time>
      </trkpt>
      <trkpt lat="45.78949" lon="2.98487">
        <ele>943</ele>
        <time>2015-10-18T01:00:36Z</time>
      </trkpt>
      <trkpt lat="45.79013" lon="2.98504">
        <ele>940</ele>
        <time>2015-10-18T01:02:36Z</time>
      </trkpt>
      <trkpt lat="45.79145" lon="2.98504">
        <ele>938</ele>
        <time>2015-10-18T01:04:36Z</time>
      </trkpt>
      <trkpt lat="45.79201" lon="2.9853">
        <ele>939</ele>
        <time>2015-10-18T01:06:36Z</time>
      </trkpt>
      <trkpt lat="45.79273" lon="2.98578">
        <ele>939</ele>
        <time>2015-10-18T01:08:36Z</time>
      </trkpt>
      <trkpt lat="45.79342" lon="2.98601">
        <ele>941</ele>
        <time>2015-10-18T01:10:36Z</time>
      </trkpt>
      <trkpt lat="45.79397" lon="2.98636">
        <ele>942</ele>
        <time>2015-10-18T01:12:36Z</time>
      </trkpt>
      <trkpt lat="45.79419" lon="2.98691">
        <ele>941</ele>
        <time>2015-10-18T01:14:36Z</time>
      </trkpt>
      <trkpt lat="45.79455" lon="2.98724">
        <ele>942</ele>
        <time>2015-10-18T01:16:36Z</time>
      </trkpt>
      <trkpt lat="45.79493" lon="2.98765">
        <ele>942</ele>
        <time>2015-10-18T01:18:36Z</time>
      </trkpt>
      <trkpt lat="45.7958" lon="2.98746">
        <ele>947</ele>
        <time>2015-10-18T01:20:36Z</time>
      </trkpt>
      <trkpt lat="45.79631" lon="2.98765">
        <ele>948</ele>
        <time>2015-10-18T01:22:36Z</time>
      </trkpt>
      <trkpt lat="45.79688" lon="2.98794">
        <ele>951</ele>
        <time>2015-10-18T01:24:36Z</time>
      </trkpt>
      <trkpt lat="45.79699" lon="2.98856">
        <ele>951</ele>
        <time>2015-10-18T01:26:36Z</time>
      </trkpt>
      <trkpt lat="45.79743" lon="2.9886">
        <ele>956</ele>
        <time>2015-10-18T01:28:36Z</time>
      </trkpt>
      <trkpt lat="45.79781" lon="2.98889">
        <ele>958</ele>
        <time>2015-10-18T01:30:36Z</time>
      </trkpt>
      <trkpt lat="45.79841" lon="2.98896">
        <ele>964</ele>
        <time>2015-10-18T01:32:36Z</time>
      </trkpt>
      <trkpt lat="45.79864" lon="2.98949">
        <ele>964</ele>
        <time>2015-10-18T01:34:36Z</time>
      </trkpt>
      <trkpt lat="45.79883" lon="2.99011">
        <ele>963</ele>
        <time>2015-10-18T01:36:36Z</time>
      </trkpt>
      <trkpt lat="45.79893" lon="2.99075">
        <ele>963</ele>
        <time>2015-10-18T01:38:36Z</time>
      </trkpt>
      <trkpt lat="45.79888" lon="2.99133">
        <ele>965</ele>
        <time>2015-10-18T01:40:36Z</time>
      </trkpt>
      <trkpt lat="45.79882" lon="2.9923">
        <ele>967</ele>
        <time>2015-10-18T01:42:36Z</time>
      </trkpt>
    </trkseg>
  </trk>
</gpx>